Time;durP1;ratioP1;P1;durP2;ratioP2;P2;SDS_P1;SDS_P2;PMS_P1;PMS_P2;Temp;Humidity;BMP_temperature;BMP_pressure;BME280_temperature;BME280_humidity;BME280_pressure;Samples;Min_cycle;Max_cycle;Signal;HPM_P1;HPM_P2
2024/01/24 00:02:12;;;;;;;5.43;1.57;;;10.40;99.90;;;;;;5075632;28;20158;-65
2024/01/24 00:04:37;;;;;;;2.90;1.47;;;10.40;99.90;;;;;;5075177;28;20409;-65
2024/01/24 00:07:03;;;;;;;4.93;1.57;;;10.40;99.90;;;;;;5075423;28;20190;-65
2024/01/24 00:09:31;;;;;;;3.53;1.50;;;10.40;99.90;;;;;;5074813;28;20192;-65
2024/01/24 00:11:57;;;;;;;4.00;1.63;;;10.50;99.90;;;;;;5075156;28;20171;-65
2024/01/24 00:14:23;;;;;;;7.50;2.07;;;10.50;99.90;;;;;;5074814;28;20761;-65
2024/01/24 00:16:48;;;;;;;5.27;1.63;;;10.70;99.90;;;;;;5075006;28;20477;-65
2024/01/24 00:19:14;;;;;;;4.33;1.33;;;10.60;99.90;;;;;;5075307;28;20169;-64
2024/01/24 00:21:40;;;;;;;4.87;1.67;;;10.60;99.90;;;;;;5075036;28;20539;-65
2024/01/24 00:24:05;;;;;;;5.60;1.57;;;10.60;99.90;;;;;;5075013;28;20542;-64
2024/01/24 00:26:31;;;;;;;5.67;1.80;;;10.60;99.90;;;;;;5077777;28;20256;-65
2024/01/24 00:28:57;;;;;;;4.50;1.60;;;10.70;99.90;;;;;;5074660;28;20218;-64
2024/01/24 00:31:23;;;;;;;3.50;1.87;;;10.80;99.90;;;;;;5074953;28;20219;-64
2024/01/24 00:33:48;;;;;;;5.00;1.30;;;10.80;99.90;;;;;;5074490;28;20163;-64
2024/01/24 00:36:14;;;;;;;4.30;1.60;;;10.80;99.90;;;;;;5074611;28;20176;-65
2024/01/24 00:38:39;;;;;;;3.07;1.33;;;10.80;99.90;;;;;;5074439;28;20192;-65
2024/01/24 00:41:05;;;;;;;5.07;1.57;;;10.80;99.90;;;;;;5074341;28;20188;-63
2024/01/24 00:43:30;;;;;;;4.60;1.53;;;10.80;99.90;;;;;;5074453;28;20180;-65
2024/01/24 00:45:56;;;;;;;5.60;1.60;;;10.80;99.90;;;;;;5056388;28;20178;-65
2024/01/24 00:48:22;;;;;;;3.00;1.47;;;10.80;99.90;;;;;;5073460;28;21391;-65
2024/01/24 00:50:47;;;;;;;2.80;1.57;;;10.90;99.90;;;;;;5074207;28;20164;-65
2024/01/24 00:53:21;;;;;;;3.80;1.20;;;11.00;99.90;;;;;;5056089;28;20197;-65
2024/01/24 00:55:47;;;;;;;3.60;1.53;;;11.00;99.90;;;;;;5074289;28;20161;-64
2024/01/24 00:58:12;;;;;;;4.53;1.57;;;11.00;99.90;;;;;;5074123;28;20775;-65
2024/01/24 01:00:39;;;;;;;4.87;1.87;;;10.90;99.90;;;;;;5074265;28;20420;-64
2024/01/24 01:03:04;;;;;;;8.77;1.90;;;11.00;99.90;;;;;;5073987;28;20188;-65
2024/01/24 01:05:30;;;;;;;3.87;1.10;;;11.00;99.90;;;;;;5073707;28;20404;-64
2024/01/24 01:07:55;;;;;;;3.27;1.30;;;11.00;99.90;;;;;;5073668;28;20206;-64
2024/01/24 01:10:21;;;;;;;4.90;1.20;;;11.00;99.90;;;;;;5073915;28;20236;-64
2024/01/24 01:12:47;;;;;;;3.67;1.70;;;11.10;99.90;;;;;;5070179;28;20176;-65
2024/01/24 01:15:12;;;;;;;3.17;1.53;;;11.10;99.90;;;;;;5072723;28;20435;-64
2024/01/24 01:17:38;;;;;;;2.63;1.30;;;11.10;99.90;;;;;;5074163;28;20234;-65
2024/01/24 01:20:05;;;;;;;3.10;1.50;;;11.20;99.90;;;;;;5073915;28;20166;-65
2024/01/24 01:22:30;;;;;;;5.13;1.70;;;11.10;99.90;;;;;;5073601;28;20178;-65
2024/01/24 01:24:56;;;;;;;3.60;1.60;;;11.10;99.90;;;;;;5073537;28;20405;-64
2024/01/24 01:27:22;;;;;;;4.57;1.53;;;11.00;99.90;;;;;;5073455;28;20185;-64
2024/01/24 01:29:48;;;;;;;2.87;1.30;;;11.10;99.90;;;;;;5055499;28;20204;-64
2024/01/24 01:32:14;;;;;;;5.80;1.30;;;11.10;99.90;;;;;;5073658;28;20839;-64
2024/01/24 01:34:40;;;;;;;2.50;1.43;;;11.10;99.90;;;;;;5074000;28;20408;-64
2024/01/24 01:37:05;;;;;;;3.37;1.27;;;11.10;99.90;;;;;;5074087;28;20189;-65
2024/01/24 01:39:31;;;;;;;5.60;1.70;;;11.10;99.90;;;;;;5055840;28;20205;-64
2024/01/24 01:41:56;;;;;;;3.60;1.47;;;11.20;99.90;;;;;;5074660;28;20172;-63
2024/01/24 01:44:22;;;;;;;3.10;1.10;;;11.20;99.90;;;;;;5073636;28;20170;-63
2024/01/24 01:46:48;;;;;;;3.60;1.47;;;11.20;99.90;;;;;;5073029;28;20204;-64
2024/01/24 01:49:14;;;;;;;3.37;1.30;;;11.10;99.90;;;;;;5073113;28;20254;-65
2024/01/24 01:51:40;;;;;;;4.33;1.70;;;11.20;99.90;;;;;;5073206;28;20483;-64
2024/01/24 01:54:08;;;;;;;3.73;1.60;;;11.10;99.90;;;;;;5073023;28;20403;-64
2024/01/24 01:56:35;;;;;;;4.53;1.33;;;11.10;99.90;;;;;;5073148;28;20193;-64
2024/01/24 01:59:01;;;;;;;1.97;0.90;;;11.10;99.90;;;;;;5072726;28;20797;-64
2024/01/24 02:01:27;;;;;;;2.13;1.00;;;11.10;99.90;;;;;;5072620;28;20848;-64
2024/01/24 02:03:52;;;;;;;4.13;1.30;;;11.10;99.90;;;;;;5073261;28;20627;-64
2024/01/24 02:06:18;;;;;;;3.43;1.10;;;11.10;99.90;;;;;;5072883;28;20168;-64
2024/01/24 02:08:44;;;;;;;2.73;1.27;;;11.10;99.90;;;;;;5072978;28;20207;-64
2024/01/24 02:11:10;;;;;;;5.63;1.67;;;11.10;99.90;;;;;;5073084;28;20408;-64
2024/01/24 02:13:35;;;;;;;3.20;1.40;;;11.20;99.90;;;;;;5073121;28;20528;-65
2024/01/24 02:16:04;;;;;;;3.43;1.10;;;11.30;99.90;;;;;;5072869;28;20397;-64
2024/01/24 02:18:30;;;;;;;4.23;1.40;;;11.30;99.90;;;;;;5072985;28;20645;-65
2024/01/24 02:20:56;;;;;;;2.10;1.03;;;11.20;99.90;;;;;;5072991;28;20442;-65
2024/01/24 02:23:25;;;;;;;3.97;1.43;;;11.20;99.90;;;;;;5072858;28;20177;-65
2024/01/24 02:25:52;;;;;;;5.27;1.80;;;11.10;99.90;;;;;;5072869;28;20257;-65
2024/01/24 02:28:18;;;;;;;2.20;1.10;;;11.10;99.90;;;;;;5072971;28;20456;-65
2024/01/24 02:30:44;;;;;;;3.80;1.20;;;11.10;99.90;;;;;;5073206;28;20407;-65
2024/01/24 02:33:10;;;;;;;3.23;1.50;;;11.10;99.90;;;;;;5072671;28;20829;-66
2024/01/24 02:35:36;;;;;;;3.30;1.13;;;11.10;99.90;;;;;;5072985;28;20586;-65
2024/01/24 02:38:02;;;;;;;3.83;1.60;;;11.10;99.90;;;;;;5073044;28;20425;-65
2024/01/24 02:40:27;;;;;;;2.13;1.00;;;11.20;99.90;;;;;;5072813;28;20177;-65
2024/01/24 02:42:53;;;;;;;2.30;1.00;;;11.20;99.90;;;;;;5073180;28;20536;-65
2024/01/24 02:45:19;;;;;;;1.90;1.07;;;11.10;99.90;;;;;;5072690;28;20239;-65
2024/01/24 02:47:45;;;;;;;3.13;1.10;;;11.10;99.90;;;;;;5054580;28;20316;-65
2024/01/24 02:50:12;;;;;;;3.27;1.03;;;11.00;99.90;;;;;;5073053;28;20500;-65
2024/01/24 02:52:38;;;;;;;2.37;1.10;;;11.00;99.90;;;;;;5072736;28;20177;-65
2024/01/24 02:55:04;;;;;;;2.60;1.37;;;11.00;99.90;;;;;;5072446;28;20414;-65
2024/01/24 02:57:29;;;;;;;2.70;1.10;;;11.10;99.90;;;;;;5072024;28;20515;-65
2024/01/24 02:59:55;;;;;;;1.77;1.00;;;11.20;99.90;;;;;;5072400;28;20503;-64
2024/01/24 03:02:20;;;;;;;2.23;1.10;;;11.20;99.90;;;;;;5072526;28;20186;-65
2024/01/24 03:04:46;;;;;;;3.57;1.60;;;11.10;99.90;;;;;;5071909;28;20168;-65
2024/01/24 03:07:11;;;;;;;2.03;1.00;;;11.10;99.90;;;;;;5072101;28;20586;-65
2024/01/24 03:09:37;;;;;;;2.60;0.90;;;11.10;99.90;;;;;;5072499;28;20198;-65
2024/01/24 03:12:03;;;;;;;4.53;0.83;;;11.20;99.90;;;;;;5074749;28;20170;-65
2024/01/24 03:14:28;;;;;;;3.97;1.30;;;11.30;99.90;;;;;;5076868;28;20177;-65
2024/01/24 03:16:54;;;;;;;2.13;1.10;;;11.30;99.90;;;;;;5072524;28;20241;-65
2024/01/24 03:19:19;;;;;;;1.63;1.00;;;11.30;99.90;;;;;;5076429;28;20185;-65
2024/01/24 03:21:46;;;;;;;4.53;1.17;;;11.30;99.90;;;;;;5076056;28;20178;-65
2024/01/24 03:24:11;;;;;;;3.30;1.37;;;11.30;99.90;;;;;;5076020;28;20177;-65
2024/01/24 03:26:37;;;;;;;4.20;1.50;;;11.40;99.90;;;;;;5075789;28;20429;-65
2024/01/24 03:29:02;;;;;;;2.63;1.17;;;11.50;99.90;;;;;;5075608;28;20247;-64
2024/01/24 03:31:28;;;;;;;2.30;1.00;;;11.60;99.90;;;;;;5075913;28;20175;-65
2024/01/24 03:33:54;;;;;;;3.63;1.17;;;11.60;99.90;;;;;;5075461;28;20171;-65
2024/01/24 03:36:19;;;;;;;2.80;1.20;;;11.70;99.90;;;;;;5057982;28;20177;-65
2024/01/24 03:38:45;;;;;;;3.77;1.20;;;11.70;99.90;;;;;;5075691;28;20192;-65
2024/01/24 03:41:10;;;;;;;2.03;1.03;;;11.70;99.90;;;;;;5075494;28;20232;-65
2024/01/24 03:43:39;;;;;;;3.77;1.57;;;11.80;99.90;;;;;;5075618;28;20173;-65
2024/01/24 03:46:05;;;;;;;3.40;1.43;;;11.80;99.90;;;;;;5075488;28;20307;-65
2024/01/24 03:48:31;;;;;;;2.20;1.10;;;11.70;99.90;;;;;;5075819;28;20478;-65
2024/01/24 03:50:57;;;;;;;2.93;1.33;;;11.70;99.90;;;;;;5075561;28;20876;-65
2024/01/24 03:53:22;;;;;;;1.43;0.80;;;11.70;99.90;;;;;;5075585;28;20165;-65
2024/01/24 03:55:48;;;;;;;3.97;2.03;;;11.80;99.90;;;;;;5075589;28;20171;-65
2024/01/24 03:58:13;;;;;;;5.60;1.30;;;11.80;99.90;;;;;;5075736;28;20602;-65
2024/01/24 04:00:39;;;;;;;3.37;1.40;;;11.90;99.90;;;;;;5075156;28;20594;-65
2024/01/24 04:03:05;;;;;;;2.93;1.70;;;11.80;99.90;;;;;;5075734;28;20537;-65
2024/01/24 04:05:30;;;;;;;3.70;1.23;;;11.80;99.90;;;;;;5075182;28;20552;-65
2024/01/24 04:07:56;;;;;;;1.63;1.23;;;11.90;99.90;;;;;;5075272;28;20196;-65
2024/01/24 04:10:21;;;;;;;6.93;1.20;;;12.00;99.90;;;;;;5075088;28;20197;-65
2024/01/24 04:12:47;;;;;;;5.70;1.90;;;12.00;99.90;;;;;;5075007;28;20627;-65
2024/01/24 04:15:13;;;;;;;2.90;1.43;;;12.00;99.90;;;;;;5074785;28;20170;-65
2024/01/24 04:17:39;;;;;;;4.90;1.50;;;11.90;99.90;;;;;;5074749;28;20200;-65
2024/01/24 04:20:06;;;;;;;3.60;1.37;;;11.80;99.90;;;;;;5075241;28;20177;-65
2024/01/24 04:22:32;;;;;;;2.70;1.30;;;11.90;99.90;;;;;;5074103;28;20417;-65
2024/01/24 04:24:57;;;;;;;2.37;1.33;;;12.00;99.90;;;;;;5074726;28;20411;-65
2024/01/24 04:27:23;;;;;;;4.57;1.30;;;12.00;99.90;;;;;;5074534;28;20429;-65
2024/01/24 04:29:48;;;;;;;2.27;1.43;;;12.00;99.90;;;;;;5074624;28;20196;-64
2024/01/24 04:32:14;;;;;;;4.43;1.97;;;12.00;99.90;;;;;;5074807;28;20627;-64
2024/01/24 04:34:40;;;;;;;4.73;1.30;;;12.10;99.90;;;;;;5074706;28;20206;-64
2024/01/24 04:37:06;;;;;;;5.23;1.53;;;12.10;99.90;;;;;;5074428;28;20467;-65
2024/01/24 04:39:31;;;;;;;4.23;1.43;;;12.10;99.90;;;;;;5074455;28;20181;-64
2024/01/24 04:42:00;;;;;;;3.03;1.20;;;12.10;99.90;;;;;;5074990;28;20200;-64
2024/01/24 04:44:25;;;;;;;1.70;1.10;;;12.20;99.90;;;;;;5056444;28;20264;-66
2024/01/24 04:46:51;;;;;;;3.63;1.83;;;12.30;99.90;;;;;;5076105;28;20539;-63
2024/01/24 04:49:16;;;;;;;2.83;1.50;;;12.30;99.90;;;;;;5074854;28;20284;-65
2024/01/24 04:51:42;;;;;;;2.27;1.33;;;12.40;99.90;;;;;;5074186;28;20183;-64
2024/01/24 04:54:07;;;;;;;3.53;1.37;;;12.40;99.90;;;;;;5074602;28;20173;-65
2024/01/24 04:56:37;;;;;;;3.10;1.30;;;12.30;99.90;;;;;;5074070;28;20212;-65
2024/01/24 04:59:02;;;;;;;2.80;1.33;;;12.20;99.90;;;;;;5074305;28;20165;-65
2024/01/24 05:01:28;;;;;;;1.60;1.43;;;12.20;99.90;;;;;;5074039;28;20415;-65
2024/01/24 05:03:54;;;;;;;3.13;1.77;;;12.30;99.90;;;;;;5073950;28;20170;-64
2024/01/24 05:06:20;;;;;;;3.23;1.10;;;12.40;99.90;;;;;;5074151;28;20258;-63
2024/01/24 05:08:46;;;;;;;6.93;1.67;;;12.20;99.90;;;;;;5074400;28;20567;-64
2024/01/24 05:11:11;;;;;;;4.57;1.80;;;12.30;99.90;;;;;;5074311;28;20171;-66
2024/01/24 05:13:37;;;;;;;3.10;2.10;;;12.30;99.90;;;;;;5073872;28;20205;-64
2024/01/24 05:16:03;;;;;;;5.90;4.43;;;12.20;99.90;;;;;;5074156;28;20195;-65
2024/01/24 05:18:28;;;;;;;3.23;1.40;;;12.30;99.90;;;;;;5073992;28;20474;-65
2024/01/24 05:20:54;;;;;;;5.97;2.47;;;12.40;99.90;;;;;;5073667;28;20173;-65
2024/01/24 05:23:20;;;;;;;19.57;11.37;;;12.30;99.90;;;;;;5073425;28;20185;-66
2024/01/24 05:25:45;;;;;;;35.60;24.47;;;12.30;99.90;;;;;;5070678;28;20179;-65
2024/01/24 05:28:11;;;;;;;3.00;2.27;;;12.40;99.90;;;;;;5074039;28;20212;-64
2024/01/24 05:30:37;;;;;;;28.33;18.50;;;12.30;99.90;;;;;;5074230;28;20217;-64
2024/01/24 05:33:03;;;;;;;26.20;19.30;;;12.30;99.90;;;;;;5073577;28;20585;-64
2024/01/24 05:35:28;;;;;;;6.60;2.57;;;12.40;99.90;;;;;;5072537;28;20261;-64
2024/01/24 05:37:54;;;;;;;5.50;3.27;;;12.40;99.90;;;;;;5073255;28;20459;-64
2024/01/24 05:40:20;;;;;;;6.60;3.40;;;12.40;99.90;;;;;;5073662;28;20168;-63
2024/01/24 05:42:45;;;;;;;10.87;7.50;;;12.40;99.90;;;;;;5073834;28;20199;-65
2024/01/24 05:45:11;;;;;;;5.33;3.30;;;12.50;99.90;;;;;;5073255;28;20379;-62
2024/01/24 05:47:42;;;;;;;19.77;13.23;;;12.50;99.90;;;;;;5073002;28;20299;-65
2024/01/24 05:50:12;;;;;;;3.83;2.00;;;12.50;99.90;;;;;;5073611;28;20525;-65
2024/01/24 05:52:42;;;;;;;11.10;5.70;;;12.60;99.90;;;;;;5073099;28;20453;-64
2024/01/24 05:55:09;;;;;;;32.63;20.83;;;12.60;99.90;;;;;;5073112;28;20777;-65
2024/01/24 05:57:39;;;;;;;2.93;1.83;;;12.70;99.90;;;;;;5074176;28;20425;-65
2024/01/24 06:00:08;;;;;;;3.10;1.63;;;12.70;99.90;;;;;;5072994;28;20415;-65
2024/01/24 06:02:36;;;;;;;4.20;2.23;;;12.70;99.90;;;;;;5073504;28;20525;-63
2024/01/24 06:05:03;;;;;;;2.90;2.70;;;12.60;99.90;;;;;;5072874;28;20419;-65
2024/01/24 06:07:28;;;;;;;2.50;1.70;;;12.70;99.90;;;;;;5072997;28;20461;-64
2024/01/24 06:09:54;;;;;;;2.30;1.17;;;12.60;99.90;;;;;;5072948;28;20484;-64
2024/01/24 06:12:20;;;;;;;3.93;1.57;;;12.60;99.90;;;;;;5073204;28;20247;-66
2024/01/24 06:14:45;;;;;;;1.50;1.20;;;12.60;99.90;;;;;;5073397;28;20173;-65
2024/01/24 06:17:11;;;;;;;2.03;1.27;;;12.60;99.90;;;;;;5072825;28;20201;-64
2024/01/24 06:19:36;;;;;;;2.20;1.40;;;12.60;99.90;;;;;;5073280;28;20175;-65
2024/01/24 06:22:02;;;;;;;1.87;1.10;;;12.60;99.90;;;;;;5072974;28;20296;-65
2024/01/24 06:24:28;;;;;;;1.57;1.20;;;12.70;99.90;;;;;;5072757;28;20177;-65
2024/01/24 06:26:53;;;;;;;6.20;1.10;;;12.70;99.90;;;;;;5072887;28;20196;-65
2024/01/24 06:29:19;;;;;;;2.90;1.40;;;12.80;99.90;;;;;;5072979;28;20195;-64
2024/01/24 06:31:48;;;;;;;3.27;1.37;;;12.70;99.90;;;;;;5072756;28;20175;-64
2024/01/24 06:34:13;;;;;;;1.97;1.10;;;12.70;99.90;;;;;;5072664;28;20192;-65
2024/01/24 06:36:39;;;;;;;1.87;1.00;;;12.70;99.90;;;;;;5072801;28;20469;-64
2024/01/24 06:39:09;;;;;;;3.53;1.07;;;12.80;99.90;;;;;;5073816;28;20231;-64
2024/01/24 06:41:35;;;;;;;2.07;1.20;;;12.80;99.90;;;;;;5073050;28;20166;-64
2024/01/24 06:44:01;;;;;;;1.77;0.80;;;12.90;99.90;;;;;;5072690;28;20760;-66
2024/01/24 06:46:27;;;;;;;2.00;1.17;;;12.80;99.90;;;;;;5074229;28;20234;-64
2024/01/24 06:48:52;;;;;;;2.37;1.00;;;12.80;99.90;;;;;;5077163;28;20248;-64
2024/01/24 06:51:19;;;;;;;1.80;1.20;;;12.90;99.90;;;;;;5076407;28;20550;-66
2024/01/24 06:53:44;;;;;;;2.77;1.50;;;12.80;99.90;;;;;;5076113;28;20174;-64
2024/01/24 06:56:10;;;;;;;2.60;0.97;;;12.90;99.90;;;;;;5076579;28;20413;-63
2024/01/24 06:58:37;;;;;;;1.30;0.80;;;12.90;99.90;;;;;;5076481;28;20636;-65
2024/01/24 07:01:03;;;;;;;1.93;1.07;;;12.90;99.90;;;;;;5076286;28;20603;-64
2024/01/24 07:03:29;;;;;;;1.57;1.10;;;12.90;99.90;;;;;;5076260;28;20476;-64
2024/01/24 07:05:54;;;;;;;4.27;0.93;;;12.80;99.90;;;;;;5076395;28;20659;-65
2024/01/24 07:08:20;;;;;;;2.47;1.23;;;12.80;99.90;;;;;;5075764;28;20201;-63
2024/01/24 07:10:45;;;;;;;3.80;1.30;;;12.80;99.90;;;;;;5075898;28;20410;-65
2024/01/24 07:13:11;;;;;;;1.70;1.20;;;12.70;99.90;;;;;;5076363;28;20541;-65
2024/01/24 07:15:36;;;;;;;5.33;1.97;;;12.80;99.90;;;;;;5076034;28;20668;-64
2024/01/24 07:18:02;;;;;;;1.83;1.10;;;12.80;99.90;;;;;;5076208;28;20693;-66
2024/01/24 07:20:29;;;;;;;4.20;1.10;;;12.80;99.90;;;;;;5076134;28;20582;-63
2024/01/24 07:22:55;;;;;;;1.73;0.93;;;12.80;99.90;;;;;;5075792;28;20661;-66
2024/01/24 07:25:21;;;;;;;3.80;1.70;;;12.80;99.90;;;;;;5075770;28;20418;-65
2024/01/24 07:27:47;;;;;;;2.80;1.10;;;12.90;99.90;;;;;;5076040;28;20199;-67
2024/01/24 07:30:15;;;;;;;3.97;1.20;;;12.90;99.90;;;;;;5075401;28;20212;-68
2024/01/24 07:32:41;;;;;;;2.27;0.90;;;12.90;99.90;;;;;;5072973;28;20410;-65
2024/01/24 07:35:07;;;;;;;3.00;1.03;;;12.90;99.90;;;;;;5075708;28;20502;-66
2024/01/24 07:37:33;;;;;;;1.50;1.03;;;13.00;99.90;;;;;;5075343;28;20216;-66
2024/01/24 07:39:59;;;;;;;2.60;1.20;;;13.10;99.90;;;;;;5075492;28;20439;-67
2024/01/24 07:42:24;;;;;;;1.63;1.10;;;13.00;99.90;;;;;;5075612;28;20275;-67
2024/01/24 07:44:50;;;;;;;1.40;0.93;;;13.00;99.90;;;;;;5075573;28;20200;-67
2024/01/24 07:47:18;;;;;;;3.17;1.20;;;13.10;99.90;;;;;;5075193;28;20204;-66
2024/01/24 07:49:44;;;;;;;1.90;1.10;;;13.10;99.90;;;;;;5075304;28;20624;-67
2024/01/24 07:52:10;;;;;;;2.03;0.90;;;13.10;99.90;;;;;;5075048;28;20420;-65
2024/01/24 07:54:35;;;;;;;1.63;1.17;;;13.20;99.90;;;;;;5075526;28;20162;-65
2024/01/24 07:57:03;;;;;;;1.83;1.00;;;13.10;99.90;;;;;;5075147;28;20739;-67
2024/01/24 07:59:29;;;;;;;2.03;1.10;;;13.20;99.90;;;;;;5074754;28;20673;-66
2024/01/24 08:01:55;;;;;;;1.53;0.93;;;13.20;99.90;;;;;;5074815;28;20396;-66
2024/01/24 08:04:20;;;;;;;2.23;1.03;;;13.30;99.90;;;;;;5075204;28;20410;-66
2024/01/24 08:06:47;;;;;;;1.42;0.85;;;13.40;99.90;;;;;;5075314;28;20074;-65
2024/01/24 08:09:13;;;;;;;1.77;0.90;;;13.40;99.90;;;;;;5075229;28;20208;-64
2024/01/24 08:11:39;;;;;;;1.80;0.80;;;13.50;99.90;;;;;;5075112;28;20495;-65
2024/01/24 08:14:05;;;;;;;1.23;0.60;;;13.50;99.90;;;;;;5075794;28;20500;-66
2024/01/24 08:16:31;;;;;;;3.03;1.00;;;13.60;99.90;;;;;;5075304;28;20456;-66
2024/01/24 08:19:00;;;;;;;2.40;0.73;;;13.60;99.90;;;;;;5075003;28;20177;-66
2024/01/24 08:21:27;;;;;;;0.90;0.70;;;13.60;99.90;;;;;;5075182;28;20420;-66
2024/01/24 08:23:53;;;;;;;2.00;1.00;;;13.50;99.90;;;;;;5074657;28;20781;-67
2024/01/24 08:26:18;;;;;;;1.10;0.80;;;13.50;99.90;;;;;;5074712;28;20415;-66
2024/01/24 08:28:44;;;;;;;0.90;0.60;;;13.60;99.90;;;;;;5074741;28;20197;-66
2024/01/24 08:31:10;;;;;;;1.20;0.70;;;13.60;99.90;;;;;;5074738;28;20254;-66
2024/01/24 08:33:36;;;;;;;1.17;0.77;;;13.60;99.90;;;;;;5075244;28;20529;-66
2024/01/24 08:36:02;;;;;;;1.37;0.97;;;13.70;99.90;;;;;;5074535;28;20406;-65
2024/01/24 08:38:28;;;;;;;1.77;0.60;;;13.70;99.90;;;;;;5074880;28;20224;-67
2024/01/24 08:40:54;;;;;;;0.70;0.50;;;13.70;99.90;;;;;;5074522;28;20171;-67
2024/01/24 08:43:19;;;;;;;1.00;0.60;;;13.70;99.90;;;;;;5074517;28;20477;-68
2024/01/24 08:45:45;;;;;;;0.90;0.60;;;13.70;99.90;;;;;;5074723;28;20176;-67
2024/01/24 08:48:10;;;;;;;0.87;0.60;;;13.70;99.90;;;;;;5074170;28;20212;-68
2024/01/24 08:50:36;;;;;;;1.00;0.70;;;13.80;99.90;;;;;;5074609;28;20184;-63
2024/01/24 08:53:02;;;;;;;1.30;0.50;;;13.70;99.90;;;;;;5074144;28;20288;-63
2024/01/24 08:55:28;;;;;;;1.00;0.50;;;13.80;99.90;;;;;;5074139;28;20516;-67
2024/01/24 08:57:54;;;;;;;1.83;0.60;;;13.90;99.90;;;;;;5056207;28;20506;-65
2024/01/24 09:00:19;;;;;;;1.37;0.50;;;14.00;99.90;;;;;;5074028;28;20175;-67
2024/01/24 09:02:46;;;;;;;1.07;0.53;;;14.10;99.90;;;;;;5074295;28;20179;-66
2024/01/24 09:05:12;;;;;;;0.90;0.60;;;13.90;99.90;;;;;;5074040;28;20183;-65
2024/01/24 09:07:37;;;;;;;0.97;0.60;;;14.00;99.90;;;;;;5073810;28;20428;-65
2024/01/24 09:10:04;;;;;;;1.47;0.70;;;14.00;99.90;;;;;;5073668;28;20277;-66
2024/01/24 09:12:30;;;;;;;1.27;0.63;;;14.00;99.90;;;;;;5074312;28;20211;-65
2024/01/24 09:14:56;;;;;;;0.97;0.50;;;14.00;99.90;;;;;;5073399;28;20414;-65
2024/01/24 09:17:22;;;;;;;1.75;0.70;;;13.90;99.90;;;;;;5073380;28;20604;-67
2024/01/24 09:19:47;;;;;;;0.80;0.50;;;14.00;99.90;;;;;;5074143;28;20516;-66
2024/01/24 09:22:13;;;;;;;0.90;0.50;;;14.10;99.90;;;;;;5074154;28;20203;-66
2024/01/24 09:24:38;;;;;;;1.77;0.80;;;14.10;99.90;;;;;;5073900;28;20163;-66
2024/01/24 09:27:04;;;;;;;1.07;0.53;;;14.10;99.90;;;;;;5073754;28;20672;-66
2024/01/24 09:29:30;;;;;;;1.43;0.50;;;14.30;99.90;;;;;;5060420;28;20233;-67
2024/01/24 09:31:56;;;;;;;0.80;0.50;;;14.30;99.90;;;;;;5053520;28;20165;-67
2024/01/24 09:34:26;;;;;;;2.80;0.50;;;14.20;99.90;;;;;;5057888;28;20427;-66
2024/01/24 09:36:54;;;;;;;0.80;0.50;;;14.10;99.90;;;;;;5073363;28;20232;-65
2024/01/24 09:39:21;;;;;;;0.87;0.53;;;14.10;99.90;;;;;;5073323;28;20810;-66
2024/01/24 09:41:50;;;;;;;0.80;0.50;;;14.10;99.90;;;;;;5073157;28;20513;-66
2024/01/24 09:44:16;;;;;;;1.33;0.87;;;14.00;99.90;;;;;;5073073;28;20398;-65
2024/01/24 09:46:42;;;;;;;0.80;0.50;;;14.00;99.90;;;;;;5097135;22;20486;-68
2024/01/24 09:49:09;;;;;;;2.60;0.60;;;13.80;99.90;;;;;;5073672;28;20196;-66
2024/01/24 09:51:35;;;;;;;0.80;0.60;;;13.90;99.90;;;;;;5073029;28;20824;-68
2024/01/24 09:54:08;;;;;;;0.80;0.50;;;14.00;99.90;;;;;;5073134;28;20441;-67
2024/01/24 09:56:38;;;;;;;1.57;0.60;;;13.90;99.90;;;;;;5073182;28;20420;-67
2024/01/24 09:59:05;;;;;;;1.00;0.50;;;14.00;99.90;;;;;;5073237;28;20397;-67
2024/01/24 10:01:33;;;;;;;1.20;0.50;;;14.00;99.90;;;;;;5072256;28;20881;-67
2024/01/24 10:04:00;;;;;;;0.90;0.77;;;14.20;99.90;;;;;;5072967;28;20168;-67
2024/01/24 10:06:27;;;;;;;0.93;0.50;;;14.30;99.90;;;;;;5072108;28;20427;-67
2024/01/24 10:08:53;;;;;;;0.87;0.50;;;14.20;99.90;;;;;;5072856;28;20466;-67
2024/01/24 10:11:19;;;;;;;0.90;0.50;;;14.20;99.90;;;;;;5072753;28;20410;-67
2024/01/24 10:13:45;;;;;;;0.90;0.50;;;14.40;99.90;;;;;;5072750;28;20786;-67
2024/01/24 10:16:10;;;;;;;0.83;0.60;;;14.40;99.90;;;;;;5072696;28;20176;-67
2024/01/24 10:18:36;;;;;;;0.90;0.70;;;14.30;99.90;;;;;;5072558;28;20198;-67
2024/01/24 10:21:04;;;;;;;0.80;0.50;;;14.40;99.90;;;;;;5072176;28;20172;-67
2024/01/24 10:23:30;;;;;;;0.90;0.60;;;14.50;99.90;;;;;;5072940;28;20252;-67
2024/01/24 10:25:59;;;;;;;1.73;0.80;;;14.50;99.90;;;;;;5072614;28;20439;-67
2024/01/24 10:28:25;;;;;;;1.43;0.60;;;14.40;99.90;;;;;;5072386;28;20805;-67
2024/01/24 10:30:51;;;;;;;0.90;0.53;;;14.40;99.90;;;;;;5073029;28;20900;-67
2024/01/24 10:33:17;;;;;;;0.70;0.50;;;14.60;99.90;;;;;;5072802;28;20419;-67
2024/01/24 10:35:43;;;;;;;1.67;0.80;;;14.40;99.90;;;;;;5072505;28;20524;-68
2024/01/24 10:38:12;;;;;;;1.77;0.70;;;14.50;99.90;;;;;;5072424;28;20193;-67
2024/01/24 10:40:41;;;;;;;0.90;0.50;;;14.50;99.90;;;;;;5072559;28;20765;-68
2024/01/24 10:43:12;;;;;;;1.20;0.90;;;14.50;99.90;;;;;;5072688;28;20402;-68
2024/01/24 10:45:43;;;;;;;0.90;0.50;;;14.50;99.90;;;;;;5072032;28;20725;-68
2024/01/24 10:48:10;;;;;;;1.10;0.60;;;14.80;99.90;;;;;;5072100;28;20494;-67
2024/01/24 10:50:37;;;;;;;0.80;0.50;;;14.90;99.90;;;;;;5072328;28;20403;-67
2024/01/24 10:53:04;;;;;;;0.90;0.60;;;14.90;99.90;;;;;;5072349;28;20774;-67
2024/01/24 10:55:31;;;;;;;1.77;0.60;;;14.90;99.90;;;;;;5072581;28;20491;-67
2024/01/24 10:57:56;;;;;;;1.15;0.60;;;15.00;99.90;;;;;;5071079;28;20411;-67
2024/01/24 11:00:24;;;;;;;0.80;0.60;;;15.10;99.90;;;;;;5072307;28;20208;-68
2024/01/24 11:02:50;;;;;;;0.90;0.50;;;15.10;99.90;;;;;;5072474;28;20579;-68
2024/01/24 11:05:30;;;;;;;0.87;0.50;;;15.00;99.90;;;;;;5072155;28;20490;-68
2024/01/24 11:08:03;;;;;;;0.97;0.60;;;15.00;99.90;;;;;;5072535;28;20196;-67
2024/01/24 11:10:36;;;;;;;0.70;0.40;;;14.70;99.90;;;;;;5072184;28;20411;-68
2024/01/24 11:13:04;;;;;;;0.87;0.47;;;14.40;99.90;;;;;;5072155;28;20866;-68
2024/01/24 11:15:31;;;;;;;1.33;0.50;;;14.20;99.90;;;;;;5072161;28;20423;-68
2024/01/24 11:18:31;;;;;;;2.03;0.60;;;14.10;99.90;;;;;;5071941;28;20419;-68
2024/01/24 11:20:58;;;;;;;0.80;0.50;;;14.20;99.90;;;;;;5038876;28;20422;-68
2024/01/24 11:23:38;;;;;;;1.83;0.60;;;14.00;99.90;;;;;;5071992;28;20443;-68
2024/01/24 11:26:04;;;;;;;1.00;0.70;;;13.80;99.90;;;;;;5072147;28;20408;-69
2024/01/24 11:28:30;;;;;;;1.23;1.10;;;13.70;99.90;;;;;;5072361;28;20495;-69
2024/01/24 11:30:56;;;;;;;1.67;1.03;;;13.70;99.90;;;;;;5072140;28;20172;-69
2024/01/24 11:33:21;;;;;;;1.97;1.47;;;13.90;99.90;;;;;;5073318;28;20556;-69
2024/01/24 11:35:47;;;;;;;1.83;0.70;;;13.90;99.90;;;;;;5075166;28;20237;-69
2024/01/24 11:38:16;;;;;;;1.13;0.83;;;13.80;99.90;;;;;;5069875;28;20206;-69
2024/01/24 11:40:43;;;;;;;1.27;0.60;;;14.10;99.90;;;;;;5055666;28;20408;-68
2024/01/24 11:43:23;;;;;;;1.33;0.90;;;14.10;99.90;;;;;;5055724;28;20433;-68
2024/01/24 11:45:56;;;;;;;0.90;0.60;;;14.00;99.90;;;;;;5061831;28;20403;-67
2024/01/24 11:48:22;;;;;;;1.50;0.70;;;14.10;99.90;;;;;;5075028;28;20458;-67
2024/01/24 11:51:24;;;;;;;1.53;0.70;;;14.20;99.90;;;;;;5066229;28;20919;-68
2024/01/24 11:54:00;;;;;;;0.90;0.60;;;14.00;99.90;;;;;;5003473;28;20452;-68
2024/01/24 11:56:25;;;;;;;1.20;1.00;;;14.20;99.90;;;;;;5056825;28;20449;-68
2024/01/24 11:58:51;;;;;;;1.03;0.77;;;14.30;99.90;;;;;;5065597;28;20526;-71
2024/01/24 12:01:17;;;;;;;2.27;0.80;;;14.20;99.90;;;;;;5070944;28;20187;-67
2024/01/24 12:03:46;;;;;;;1.03;0.93;;;14.10;99.90;;;;;;5074923;28;20173;-68
2024/01/24 12:06:12;;;;;;;1.00;0.73;;;13.90;99.90;;;;;;5073554;28;20261;-67
2024/01/24 12:08:38;;;;;;;1.20;0.70;;;13.80;99.90;;;;;;5074500;28;20521;-68
2024/01/24 12:11:06;;;;;;;1.42;0.80;;;13.90;99.90;;;;;;5074744;28;20464;-68
2024/01/24 12:13:33;;;;;;;3.20;1.03;;;13.80;99.90;;;;;;5074982;28;20625;-68
2024/01/24 12:16:01;;;;;;;1.20;0.80;;;13.80;99.90;;;;;;5075013;28;20406;-68
2024/01/24 12:18:27;;;;;;;2.50;0.70;;;13.80;99.90;;;;;;5074580;28;20873;-68
2024/01/24 12:20:54;;;;;;;3.13;0.70;;;13.70;99.90;;;;;;5074734;28;20443;-68
2024/01/24 12:23:34;;;;;;;1.53;0.60;;;13.70;99.90;;;;;;5074630;28;20410;-68
2024/01/24 12:26:00;;;;;;;2.80;0.80;;;13.60;99.90;;;;;;5074976;28;20477;-68
2024/01/24 12:28:26;;;;;;;1.20;0.87;;;13.50;99.90;;;;;;5074817;28;20540;-68
2024/01/24 12:31:03;;;;;;;1.53;0.70;;;13.60;99.90;;;;;;5074405;28;20161;-68
2024/01/24 12:33:31;;;;;;;1.60;0.80;;;13.60;99.90;;;;;;5074401;28;20149;-67
2024/01/24 12:36:03;;;;;;;2.73;0.70;;;13.70;99.90;;;;;;5074586;28;20401;-68
2024/01/24 12:38:29;;;;;;;2.67;0.80;;;13.70;99.90;;;;;;5074318;28;20413;-68
2024/01/24 12:40:55;;;;;;;3.87;1.00;;;13.70;99.90;;;;;;5074297;28;20474;-68
2024/01/24 12:43:22;;;;;;;2.60;1.17;;;13.70;99.90;;;;;;5073933;28;20197;-68